createdAt,value
2019-02-26T00:01:36.018Z,6.2
2019-02-26T00:18:14.001Z,5.9
2019-02-26T00:34:47.516Z,6.2
2019-02-26T00:51:24.822Z,5.9
2019-02-26T01:07:58.982Z,5.9
2019-02-26T01:24:34.714Z,5.9
2019-02-26T01:41:11.269Z,5.6
2019-02-26T01:57:45.708Z,5.6
2019-02-26T02:14:21.226Z,5.6
2019-02-26T02:30:56.580Z,5.3
2019-02-26T02:47:35.715Z,5.0
2019-02-26T03:04:06.808Z,4.6
2019-02-26T03:20:41.677Z,4.3
2019-02-26T03:37:16.282Z,4.3
2019-02-26T03:53:50.983Z,4.3
2019-02-26T04:10:25.603Z,4.3
2019-02-26T04:27:00.269Z,4.3
2019-02-26T04:43:36.301Z,4.3
2019-02-26T05:00:10.522Z,4.3
2019-02-26T05:16:44.280Z,4.3
2019-02-26T05:33:21.454Z,4.0
2019-02-26T05:49:53.328Z,3.7
2019-02-26T06:06:27.334Z,3.4
2019-02-26T06:23:01.673Z,3.4
2019-02-26T06:39:36.280Z,3.4
2019-02-26T06:56:09.747Z,3.7
2019-02-26T07:12:45.522Z,3.7
2019-02-26T07:29:18.409Z,4.0
2019-02-26T07:45:53.135Z,5.0
2019-02-26T09:58:52.330Z,11.0
2019-02-26T10:15:32.311Z,11.7
2019-02-26T10:32:11.943Z,12.3
2019-02-26T10:48:52.861Z,13.0
2019-02-26T11:05:33.691Z,13.6
2019-02-26T11:22:18.103Z,13.9
2019-02-26T11:35:39.704Z,14.6
2019-02-26T11:42:21.248Z,14.6
2019-02-26T11:55:40.662Z,15.2
2019-02-26T12:12:25.728Z,15.5
2019-02-26T12:22:27.874Z,16.2
2019-02-26T12:39:10.068Z,16.2
2019-02-26T12:52:33.116Z,16.5
2019-02-26T13:02:39.330Z,16.5
2019-02-26T13:12:38.099Z,16.5
2019-02-26T13:29:22.310Z,16.8
2019-02-26T13:46:06.660Z,16.8
2019-02-26T14:02:51.112Z,16.8
2019-02-26T14:19:35.627Z,16.8
2019-02-26T14:36:19.987Z,16.8
2019-02-26T14:53:04.282Z,16.5
2019-02-26T15:09:48.389Z,16.5
2019-02-26T15:26:32.416Z,16.2
2019-02-26T15:43:16.397Z,15.8
2019-02-26T15:59:59.601Z,15.5
2019-02-26T16:16:42.799Z,15.2
2019-02-26T16:50:13.100Z,14.6
2019-02-26T17:03:31.694Z,13.9
2019-02-26T17:16:51.760Z,13.3
2019-02-26T17:33:33.449Z,13.0
2019-02-26T17:43:33.874Z,12.6
2019-02-26T18:00:14.793Z,12.0
2019-02-26T18:16:54.986Z,11.7
2019-02-26T18:33:36.161Z,11.0
2019-02-26T18:50:14.911Z,10.7
2019-02-26T19:06:54.475Z,10.4
2019-02-26T19:23:33.733Z,10.4
2019-02-26T19:40:12.633Z,9.8
2019-02-26T19:56:54.627Z,9.4
2019-02-26T20:13:31.709Z,9.4
2019-02-26T20:30:09.577Z,9.1
2019-02-26T20:46:46.712Z,8.8
2019-02-26T21:03:26.447Z,8.5
2019-02-26T21:20:02.242Z,8.2
2019-02-26T21:36:45.066Z,8.2
2019-02-26T21:44:58.153Z,7.5
2019-02-26T22:01:34.797Z,7.5
2019-02-26T22:18:11.528Z,7.5
2019-02-26T22:34:48.112Z,7.2
2019-02-26T22:51:24.557Z,6.9
2019-02-26T23:08:00.817Z,6.9
2019-02-26T23:24:36.836Z,6.2
2019-02-26T23:41:12.627Z,6.2
2019-02-26T23:57:48.533Z,5.9
